< Typhoon 195417 1954 Season Typhoon 195419 >
Typhoon 195418 (NO-NAME)
General InformationTrack Information on Google Maps || Disaster Info.ResourceGoogle EarthGE AnimationAtom FeedGeoJSON
Detalied Best Track (Time Zone = UTC)
Year Month Day Hour Lat. Long. Pressure (hPa) Wind (kt) Class Image Chart
1954 10 24 00 18.0 138.0 1004 0 2 -- Chart
1954 10 24 06 18.6 137.6 1004 0 9 -- Chart
1954 10 24 12 19.3 137.0 1004 0 9 -- Chart
1954 10 24 18 20.4 136.4 1004 0 9 -- Chart
1954 10 25 00 21.8 136.3 1004 0 9 -- Chart
1954 10 25 06 23.5 136.4 1004 0 9 -- Chart
1954 10 25 12 25.0 137.0 1004 0 9 -- Chart
1954 10 25 18 26.7 137.9 1004 0 9 -- Chart
1954 10 26 00 28.4 138.9 1004 0 9 -- Chart
1954 10 26 06 31.0 140.0 1006 0 9 -- Chart
1954 10 26 12 31.5 144.0 1006 0 9 -- Chart
1954 10 26 18 32.0 148.0 1006 0 9 -- Chart
1954 10 27 00 32.2 152.0 1006 0 6 -- Chart
1954 10 27 06 32.4 156.0 1006 0 6 -- Chart
1954 10 27 12 32.5 158.0 1010 0 6 -- Chart
1954 10 27 18 32.8 160.0 1012 0 6 -- Chart
1954 10 28 00 33.0 162.0 1014 0 6 -- Chart
1954 10 28 06 33.0 164.0 1014 0 6 -- Chart
1954 10 28 12 33.0 166.0 1014 0 6 -- Chart
1954 10 28 18 33.0 167.0 1014 0 6 -- Chart
Japan Meteorological Agency Best Track Data | Correction Date : 1989-06-01
< Typhoon 195417 1954 Season Typhoon 195419 >

Help